Terminal Aerodrome Forecast
Issued by NWS Mt. Holly, NJ

Home | Current Version | Previous Version | Text Only | Print | Product List | Glossary On
Versions: 1 2 3 4 5 6 7 8 9 10 11 12 13 14 15 16 17 18 19 20 21
159
FTUS41 KPHI 122335
TAFRDG
TAF
KRDG 122335Z 1300/1324 21004KT P6SM OVC040
      TEMPO 1301/1304 4SM -SHSN BKN030
     FM130500 26005KT P6SM SCT030 OVC060
     FM130900 30012G23KT P6SM SCT030 OVC060
     FM131300 32015G28KT P6SM SCT030
     FM131600 32018G35KT P6SM BKN050=

USA.gov is the U.S. government's official web portal to all federal, state and local government web resources and services.